createdAt,value
2022-08-12T00:04:48.530Z,1.00
2022-08-12T00:10:08.589Z,0.90
2022-08-12T00:15:28.723Z,0.80
2022-08-12T00:20:48.562Z,0.90
2022-08-12T00:26:23.272Z,0.93
2022-08-12T00:31:43.979Z,1.00
2022-08-12T00:37:13.447Z,0.93
2022-08-12T00:42:15.649Z,0.98
2022-08-12T00:47:24.952Z,0.85
2022-08-12T00:52:27.408Z,1.10
2022-08-12T00:57:35.692Z,1.05
2022-08-12T01:02:46.325Z,0.90
2022-08-12T01:08:06.781Z,0.85
2022-08-12T01:13:19.325Z,1.15
2022-08-12T01:18:27.801Z,1.10
2022-08-12T01:23:40.684Z,1.30
2022-08-12T01:28:42.736Z,1.10
2022-08-12T01:34:03.470Z,1.20
2022-08-12T01:39:05.421Z,1.02
2022-08-12T01:44:07.169Z,1.20
2022-08-12T01:49:53.167Z,0.95
2022-08-12T01:54:54.585Z,1.00
2022-08-12T02:00:13.647Z,0.90
2022-08-12T02:06:07.977Z,1.00
2022-08-12T02:11:22.757Z,1.20
2022-08-12T02:16:45.237Z,0.90
2022-08-12T02:21:51.965Z,1.05
2022-08-12T02:26:53.481Z,0.90
2022-08-12T02:31:54.924Z,1.10
2022-08-12T02:36:57.597Z,1.20
2022-08-12T02:42:04.627Z,0.95
2022-08-12T02:47:06.281Z,0.85
2022-08-12T02:52:07.914Z,1.00
2022-08-12T02:57:09.964Z,0.88
2022-08-12T03:02:12.974Z,1.05
2022-08-12T03:07:23.661Z,1.13
2022-08-12T03:12:36.789Z,1.20
2022-08-12T03:18:26.377Z,1.00
2022-08-12T03:23:17.300Z,1.30
2022-08-12T03:28:50.228Z,1.00
2022-08-12T03:34:00.766Z,0.90
2022-08-12T03:39:22.984Z,1.10
2022-08-12T03:44:57.388Z,1.10
2022-08-12T03:50:17.156Z,1.00
2022-08-12T03:55:37.108Z,1.00
2022-08-12T04:00:38.569Z,1.10
2022-08-12T04:05:56.119Z,1.08
2022-08-12T04:11:16.173Z,1.20
2022-08-12T04:16:17.573Z,1.00
2022-08-12T04:21:19.293Z,1.33
2022-08-12T04:26:20.777Z,1.40
2022-08-12T04:31:36.915Z,1.20
2022-08-12T04:36:39.294Z,1.25
2022-08-12T04:41:50.354Z,1.02
2022-08-12T04:47:00.096Z,1.15
2022-08-12T04:52:02.654Z,1.13
2022-08-12T04:57:05.567Z,1.20
2022-08-12T05:02:09.675Z,1.00
2022-08-12T05:07:19.334Z,1.00
2022-08-12T05:12:20.773Z,1.50
2022-08-12T05:17:27.282Z,1.30
2022-08-12T05:22:29.771Z,1.05
2022-08-12T05:27:31.197Z,1.23
2022-08-12T05:32:32.634Z,1.10
2022-08-12T05:37:34.653Z,1.05
2022-08-12T05:42:36.108Z,1.25
2022-08-12T05:47:53.839Z,1.35
2022-08-12T05:52:55.691Z,1.17
2022-08-12T05:57:57.161Z,1.00
2022-08-12T06:03:01.993Z,1.08
2022-08-12T06:08:05.853Z,0.95
2022-08-12T06:13:07.451Z,1.17
2022-08-12T06:18:13.572Z,1.08
2022-08-12T06:23:17.801Z,0.98
2022-08-12T06:28:19.401Z,1.40
2022-08-12T06:33:23.042Z,1.40
2022-08-12T06:38:27.189Z,1.20
2022-08-12T06:43:28.760Z,1.20
2022-08-12T06:48:50.517Z,1.00
2022-08-12T06:53:51.920Z,0.90
2022-08-12T06:58:53.386Z,1.30
2022-08-12T07:03:55.230Z,1.10
2022-08-12T07:08:56.639Z,1.00
2022-08-12T07:14:11.461Z,1.10
2022-08-12T07:19:14.818Z,1.08
2022-08-12T07:24:18.126Z,1.10
2022-08-12T07:29:20.472Z,1.30
2022-08-12T07:34:23.265Z,1.00
2022-08-12T07:39:24.714Z,1.02
2022-08-12T07:44:26.165Z,1.10
2022-08-12T07:49:28.005Z,1.10
2022-08-12T07:54:29.517Z,1.13
2022-08-12T07:59:33.870Z,1.70
2022-08-12T08:04:54.685Z,1.20
2022-08-12T08:09:59.979Z,1.20
2022-08-12T08:20:04.644Z,1.88
2022-08-12T08:25:35.095Z,1.25
2022-08-12T08:30:29.623Z,1.58
2022-08-12T08:35:45.447Z,1.27
2022-08-12T08:41:07.119Z,1.40
2022-08-12T08:46:08.516Z,1.30
2022-08-12T08:51:09.973Z,1.00
2022-08-12T08:56:11.685Z,1.10
2022-08-12T09:01:21.359Z,1.10
2022-08-12T09:06:36.925Z,1.17
2022-08-12T09:17:21.037Z,1.20
2022-08-12T09:22:25.889Z,1.08
2022-08-12T09:28:03.659Z,0.80
2022-08-12T09:33:05.273Z,0.90
2022-08-12T09:38:27.716Z,0.80
2022-08-12T09:43:53.889Z,0.90
2022-08-12T09:49:03.970Z,0.88
2022-08-12T09:54:33.091Z,0.80
2022-08-12T10:00:16.689Z,0.90
2022-08-12T10:04:59.390Z,0.90
2022-08-12T10:10:01.120Z,0.70
2022-08-12T10:15:02.687Z,0.77
2022-08-12T10:20:04.712Z,1.05
2022-08-12T10:26:35.054Z,0.60
2022-08-12T10:31:05.124Z,0.80
2022-08-12T10:36:06.991Z,0.93
2022-08-12T10:41:57.700Z,0.98
2022-08-12T10:46:50.153Z,0.70
2022-08-12T10:52:33.367Z,0.80
2022-08-12T10:57:18.405Z,0.90
2022-08-12T11:04:26.006Z,0.95
2022-08-12T11:08:36.676Z,1.05
2022-08-12T11:13:19.129Z,0.90
2022-08-12T11:18:40.670Z,0.80
2022-08-12T11:23:42.079Z,0.90
2022-08-12T11:28:43.479Z,0.80
2022-08-12T11:34:05.049Z,0.68
2022-08-12T11:39:15.128Z,0.87
2022-08-12T11:44:36.764Z,0.70
2022-08-12T11:49:45.746Z,0.80
2022-08-12T11:54:54.313Z,0.80
2022-08-12T12:05:18.057Z,0.85
2022-08-12T12:10:20.033Z,0.90
2022-08-12T12:15:25.252Z,0.80
2022-08-12T12:20:42.404Z,0.98
2022-08-12T12:26:07.393Z,0.70
2022-08-12T12:31:15.144Z,0.77
2022-08-12T12:36:30.106Z,0.80
2022-08-12T12:42:41.619Z,0.80
2022-08-12T12:46:54.846Z,1.00
2022-08-12T12:52:19.083Z,0.80
2022-08-12T12:57:17.692Z,0.77
2022-08-12T13:02:40.319Z,0.70
2022-08-12T13:07:54.644Z,0.90
2022-08-12T13:12:56.692Z,0.98
2022-08-12T13:18:05.034Z,0.77
2022-08-12T13:23:36.293Z,0.80
2022-08-12T13:28:30.409Z,0.70
2022-08-12T13:34:33.816Z,0.90
2022-08-12T13:38:54.703Z,0.80
2022-08-12T13:43:59.650Z,0.90
2022-08-12T13:49:02.662Z,0.80
2022-08-12T13:54:09.806Z,0.77
2022-08-12T13:59:13.384Z,0.55
2022-08-12T14:04:15.808Z,0.80
2022-08-12T14:09:20.011Z,0.82
2022-08-12T14:14:21.528Z,0.80
2022-08-12T14:19:31.698Z,0.70
2022-08-12T14:24:40.616Z,0.63
2022-08-12T14:30:05.450Z,0.70
2022-08-12T14:40:18.535Z,0.80
2022-08-12T14:45:22.935Z,0.60
2022-08-12T14:50:41.198Z,0.70
2022-08-12T15:01:29.442Z,0.70
2022-08-12T15:06:44.490Z,0.70
2022-08-12T15:12:03.584Z,0.70
2022-08-12T15:17:08.504Z,0.80
2022-08-12T15:22:38.687Z,0.80
2022-08-12T15:28:03.814Z,1.10
2022-08-12T15:32:53.674Z,0.90
2022-08-12T15:38:09.953Z,0.68
2022-08-12T15:43:51.485Z,0.70
2022-08-12T15:48:37.172Z,0.73
2022-08-12T15:53:56.962Z,0.80
2022-08-12T15:58:59.443Z,0.77
2022-08-12T16:04:01.158Z,0.80
2022-08-12T16:09:02.650Z,0.80
2022-08-12T16:14:04.052Z,0.60
2022-08-12T16:19:09.652Z,0.80
2022-08-12T16:24:28.713Z,0.80
2022-08-12T16:29:53.056Z,0.63
2022-08-12T16:34:57.714Z,0.70
2022-08-12T16:40:04.824Z,0.85
2022-08-12T16:45:08.697Z,0.80
2022-08-12T16:50:15.013Z,0.80
2022-08-12T16:55:16.588Z,0.63
2022-08-12T17:00:20.249Z,0.60
2022-08-12T17:05:24.959Z,0.85
2022-08-12T17:10:35.558Z,0.80
2022-08-12T17:15:56.989Z,0.70
2022-08-12T17:21:02.545Z,0.70
2022-08-12T17:26:06.069Z,0.70
2022-08-12T17:31:07.509Z,0.57
2022-08-12T17:36:10.720Z,0.80
2022-08-12T17:41:22.447Z,0.85
2022-08-12T17:46:33.086Z,0.73
2022-08-12T17:51:35.503Z,0.70
2022-08-12T17:56:52.097Z,0.77
2022-08-12T18:01:53.525Z,0.80
2022-08-12T18:06:55.698Z,0.88
2022-08-12T18:12:15.665Z,0.65
2022-08-12T18:17:30.098Z,0.80
2022-08-12T18:22:32.810Z,0.73
2022-08-12T18:27:44.091Z,0.73
2022-08-12T18:32:58.429Z,0.80
2022-08-12T18:38:02.565Z,0.70
2022-08-12T18:43:04.946Z,0.80
2022-08-12T18:48:06.905Z,0.70
2022-08-12T18:53:09.676Z,0.90
2022-08-12T18:58:33.393Z,0.85
2022-08-12T19:03:39.952Z,0.95
2022-08-12T19:08:47.152Z,0.70
2022-08-12T19:14:07.445Z,0.82
2022-08-12T19:19:14.026Z,0.82
2022-08-12T19:24:39.312Z,0.60
2022-08-12T19:29:44.233Z,0.70
2022-08-12T19:36:06.963Z,0.80
2022-08-12T19:40:31.315Z,0.80
2022-08-12T19:45:43.841Z,0.80
2022-08-12T19:50:53.185Z,0.80
2022-08-12T19:55:55.202Z,0.95
2022-08-12T20:00:56.699Z,0.80
2022-08-12T20:06:06.099Z,0.90
2022-08-12T20:12:13.401Z,0.90
2022-08-12T20:21:58.985Z,1.00
2022-08-12T20:27:02.105Z,0.77
2022-08-12T20:32:04.565Z,0.90
2022-08-12T20:37:06.594Z,0.90
2022-08-12T20:42:11.738Z,1.00
2022-08-12T20:47:17.900Z,1.00
2022-08-12T20:52:22.380Z,1.13
2022-08-12T20:57:23.843Z,0.80
2022-08-12T21:02:30.327Z,0.98
2022-08-12T21:07:34.261Z,1.20
2022-08-12T21:12:42.218Z,0.80
2022-08-12T21:18:00.554Z,1.10
2022-08-12T21:23:09.518Z,0.90
2022-08-12T21:28:10.919Z,1.25
2022-08-12T21:33:17.058Z,1.15
2022-08-12T21:38:18.689Z,1.20
2022-08-12T21:43:21.146Z,1.13
2022-08-12T21:48:25.297Z,1.02
2022-08-12T21:54:05.824Z,1.23
2022-08-12T21:58:49.377Z,0.85
2022-08-12T22:04:11.318Z,1.10
2022-08-12T22:09:16.999Z,1.20
2022-08-12T22:14:23.675Z,1.37
2022-08-12T22:19:26.963Z,1.20
2022-08-12T22:24:30.155Z,1.20
2022-08-12T22:29:50.649Z,1.20
2022-08-12T22:35:12.020Z,1.00
2022-08-12T22:40:23.960Z,1.35
2022-08-12T22:45:56.236Z,1.10
2022-08-12T22:51:00.353Z,1.20
2022-08-12T22:56:06.411Z,1.35
2022-08-12T23:01:10.480Z,1.10
2022-08-12T23:06:11.936Z,1.05
2022-08-12T23:11:13.485Z,1.20
2022-08-12T23:16:29.410Z,1.20
2022-08-12T23:27:12.930Z,1.10
2022-08-12T23:32:35.366Z,1.40
2022-08-12T23:37:46.991Z,0.90
2022-08-12T23:42:55.058Z,1.00
2022-08-12T23:47:59.664Z,1.30
2022-08-12T23:53:03.382Z,1.10
2022-08-12T23:58:18.427Z,1.30
